sensor_id;sensor_type;location;lat;lon;timestamp;pressure;altitude;pressure_sealevel;temperature;humidity
74680;BME280;63211;48.548;2.704;2023-12-29T00:01:34;100895.31;;;18.39;54.51
74680;BME280;63211;48.548;2.704;2023-12-29T00:04:01;100893.03;;;18.36;54.59
74680;BME280;63211;48.548;2.704;2023-12-29T00:06:27;100890.75;;;18.33;54.62
74680;BME280;63211;48.548;2.704;2023-12-29T00:08:54;100877.81;;;18.28;54.89
74680;BME280;63211;48.548;2.704;2023-12-29T00:11:21;100878.03;;;18.27;54.32
74680;BME280;63211;48.548;2.704;2023-12-29T00:13:47;100875.09;;;18.28;54.61
74680;BME280;63211;48.548;2.704;2023-12-29T00:16:15;100875.44;;;18.32;54.77
74680;BME280;63211;48.548;2.704;2023-12-29T00:18:42;100873.78;;;18.31;54.27
74680;BME280;63211;48.548;2.704;2023-12-29T00:21:09;100868.53;;;18.29;54.06
74680;BME280;63211;48.548;2.704;2023-12-29T00:23:35;100871.28;;;18.29;53.75
74680;BME280;63211;48.548;2.704;2023-12-29T00:26:02;100867.88;;;18.34;54.04
74680;BME280;63211;48.548;2.704;2023-12-29T00:28:28;100871.84;;;18.38;53.53
74680;BME280;63211;48.548;2.704;2023-12-29T00:30:55;100867.22;;;18.38;52.05
74680;BME280;63211;48.548;2.704;2023-12-29T00:33:23;100869.91;;;18.45;51.85
74680;BME280;63211;48.548;2.704;2023-12-29T00:35:50;100871.38;;;18.47;52.26
74680;BME280;63211;48.548;2.704;2023-12-29T00:38:16;100858.22;;;18.38;53.64
74680;BME280;63211;48.548;2.704;2023-12-29T00:40:43;100874.13;;;18.41;54.38
74680;BME280;63211;48.548;2.704;2023-12-29T00:43:09;100878.97;;;18.39;54.36
74680;BME280;63211;48.548;2.704;2023-12-29T00:45:36;100866.84;;;18.35;54.60
74680;BME280;63211;48.548;2.704;2023-12-29T00:48:03;100873.75;;;18.37;54.45
74680;BME280;63211;48.548;2.704;2023-12-29T00:50:31;100863.28;;;18.34;54.37
74680;BME280;63211;48.548;2.704;2023-12-29T00:52:58;100865.16;;;18.34;54.20
74680;BME280;63211;48.548;2.704;2023-12-29T00:55:24;100861.16;;;18.36;53.92
74680;BME280;63211;48.548;2.704;2023-12-29T00:57:51;100863.06;;;18.36;54.26
74680;BME280;63211;48.548;2.704;2023-12-29T01:00:17;100858.88;;;18.33;53.58
74680;BME280;63211;48.548;2.704;2023-12-29T01:02:44;100860.75;;;18.33;54.12
74680;BME280;63211;48.548;2.704;2023-12-29T01:05:14;100866.22;;;18.33;54.13
74680;BME280;63211;48.548;2.704;2023-12-29T01:07:42;100870.84;;;18.32;54.37
74680;BME280;63211;48.548;2.704;2023-12-29T01:10:09;100857.63;;;18.29;54.25
74680;BME280;63211;48.548;2.704;2023-12-29T01:12:36;100864.75;;;18.30;54.26
74680;BME280;63211;48.548;2.704;2023-12-29T01:15:03;100858.47;;;18.30;54.17
74680;BME280;63211;48.548;2.704;2023-12-29T01:17:29;100861.44;;;18.28;54.31
74680;BME280;63211;48.548;2.704;2023-12-29T01:19:56;100850.16;;;18.25;53.91
74680;BME280;63211;48.548;2.704;2023-12-29T01:22:22;100862.28;;;18.29;53.98
74680;BME280;63211;48.548;2.704;2023-12-29T01:24:50;100860.22;;;18.24;53.99
74680;BME280;63211;48.548;2.704;2023-12-29T01:27:17;100863.16;;;18.23;54.14
74680;BME280;63211;48.548;2.704;2023-12-29T01:29:43;100869.63;;;18.28;53.78
74680;BME280;63211;48.548;2.704;2023-12-29T01:32:10;100874.41;;;18.33;52.02
74680;BME280;63211;48.548;2.704;2023-12-29T01:34:37;100871.63;;;18.39;52.21
74680;BME280;63211;48.548;2.704;2023-12-29T01:37:03;100863.28;;;18.34;51.61
74680;BME280;63211;48.548;2.704;2023-12-29T01:39:30;100859.06;;;18.38;51.44
74680;BME280;63211;48.548;2.704;2023-12-29T01:41:58;100881.03;;;18.43;53.14
74680;BME280;63211;48.548;2.704;2023-12-29T01:44:25;100878.75;;;18.40;53.87
74680;BME280;63211;48.548;2.704;2023-12-29T01:46:53;100871.66;;;18.33;54.02
74680;BME280;63211;48.548;2.704;2023-12-29T01:49:22;100875.63;;;18.37;53.98
74680;BME280;63211;48.548;2.704;2023-12-29T01:51:50;100880.25;;;18.36;54.34
74680;BME280;63211;48.548;2.704;2023-12-29T01:54:18;100878.56;;;18.35;54.10
74680;BME280;63211;48.548;2.704;2023-12-29T01:56:46;100876.13;;;18.27;53.73
74680;BME280;63211;48.548;2.704;2023-12-29T01:59:14;100893.25;;;18.34;54.16
74680;BME280;63211;48.548;2.704;2023-12-29T02:01:42;100894.09;;;18.35;53.81
74680;BME280;63211;48.548;2.704;2023-12-29T02:04:12;100899.97;;;18.32;53.75
74680;BME280;63211;48.548;2.704;2023-12-29T02:06:39;100907.31;;;18.31;53.77
74680;BME280;63211;48.548;2.704;2023-12-29T02:09:06;100897.94;;;18.27;54.31
74680;BME280;63211;48.548;2.704;2023-12-29T02:11:33;100898.31;;;18.31;53.95
74680;BME280;63211;48.548;2.704;2023-12-29T02:14:00;100894.75;;;18.30;53.74
74680;BME280;63211;48.548;2.704;2023-12-29T02:16:34;100893.91;;;18.30;54.15
74680;BME280;63211;48.548;2.704;2023-12-29T02:19:13;100868.19;;;18.26;53.78
74680;BME280;63211;48.548;2.704;2023-12-29T02:21:40;100861.06;;;18.25;53.91
74680;BME280;63211;48.548;2.704;2023-12-29T02:24:06;100863.56;;;18.26;54.00
74680;BME280;63211;48.548;2.704;2023-12-29T02:26:34;100864.63;;;18.25;53.66
74680;BME280;63211;48.548;2.704;2023-12-29T02:29:04;100857.50;;;18.24;53.76
74680;BME280;63211;48.548;2.704;2023-12-29T02:31:35;100853.72;;;18.25;53.36
74680;BME280;63211;48.548;2.704;2023-12-29T02:34:06;100872.09;;;18.30;53.10
74680;BME280;63211;48.548;2.704;2023-12-29T02:36:34;100868.94;;;18.33;52.21
74680;BME280;63211;48.548;2.704;2023-12-29T02:39:07;100862.72;;;18.26;52.30
74680;BME280;63211;48.548;2.704;2023-12-29T02:41:36;100874.13;;;18.41;52.26
74680;BME280;63211;48.548;2.704;2023-12-29T02:44:03;100875.19;;;18.40;51.49
74680;BME280;63211;48.548;2.704;2023-12-29T02:46:30;100883.75;;;18.43;52.81
74680;BME280;63211;48.548;2.704;2023-12-29T02:48:56;100878.53;;;18.42;53.80
74680;BME280;63211;48.548;2.704;2023-12-29T02:51:24;100872.50;;;18.33;53.91
74680;BME280;63211;48.548;2.704;2023-12-29T02:53:51;100880.47;;;18.35;54.04
74680;BME280;63211;48.548;2.704;2023-12-29T02:56:17;100880.69;;;18.33;54.03
74680;BME280;63211;48.548;2.704;2023-12-29T02:58:45;100874.19;;;18.34;53.90
74680;BME280;63211;48.548;2.704;2023-12-29T03:01:13;100872.28;;;18.35;53.63
74680;BME280;63211;48.548;2.704;2023-12-29T03:03:40;100864.09;;;18.35;54.03
74680;BME280;63211;48.548;2.704;2023-12-29T03:06:06;100870.63;;;18.34;53.55
74680;BME280;63211;48.548;2.704;2023-12-29T03:08:33;100862.66;;;18.32;53.76
74680;BME280;63211;48.548;2.704;2023-12-29T03:10:59;100867.88;;;18.34;53.97
74680;BME280;63211;48.548;2.704;2023-12-29T03:13:26;100861.59;;;18.33;53.51
74680;BME280;63211;48.548;2.704;2023-12-29T03:15:54;100838.63;;;18.23;54.04
74680;BME280;63211;48.548;2.704;2023-12-29T03:18:20;100835.47;;;18.26;53.95
74680;BME280;63211;48.548;2.704;2023-12-29T03:20:47;100840.50;;;18.29;53.75
74680;BME280;63211;48.548;2.704;2023-12-29T03:23:13;100831.28;;;18.23;53.82
74680;BME280;63211;48.548;2.704;2023-12-29T03:25:40;100843.22;;;18.29;54.13
74680;BME280;63211;48.548;2.704;2023-12-29T03:28:07;100836.13;;;18.21;53.94
74680;BME280;63211;48.548;2.704;2023-12-29T03:30:33;100829.81;;;18.27;53.69
74680;BME280;63211;48.548;2.704;2023-12-29T03:33:01;100794.06;;;18.10;53.93
74680;BME280;63211;48.548;2.704;2023-12-29T03:35:28;100829.19;;;18.25;53.72
74680;BME280;63211;48.548;2.704;2023-12-29T03:37:55;100825.19;;;18.28;53.53
74680;BME280;63211;48.548;2.704;2023-12-29T03:40:21;100822.22;;;18.29;53.38
74680;BME280;63211;48.548;2.704;2023-12-29T03:42:48;100814.44;;;18.33;52.94
74680;BME280;63211;48.548;2.704;2023-12-29T03:45:14;100818.16;;;18.38;51.84
74680;BME280;63211;48.548;2.704;2023-12-29T03:47:41;100788.69;;;18.29;51.86
74680;BME280;63211;48.548;2.704;2023-12-29T03:50:09;100816.22;;;18.45;51.85
74680;BME280;63211;48.548;2.704;2023-12-29T03:52:36;100785.34;;;18.27;52.38
74680;BME280;63211;48.548;2.704;2023-12-29T03:55:03;100812.28;;;18.41;52.45
74680;BME280;63211;48.548;2.704;2023-12-29T03:57:30;100801.03;;;18.31;53.52
74680;BME280;63211;48.548;2.704;2023-12-29T03:59:56;100804.53;;;18.38;53.01
74680;BME280;63211;48.548;2.704;2023-12-29T04:02:23;100792.19;;;18.36;53.75
74680;BME280;63211;48.548;2.704;2023-12-29T04:04:49;100793.84;;;18.37;53.58
74680;BME280;63211;48.548;2.704;2023-12-29T04:07:17;100794.91;;;18.36;54.01
74680;BME280;63211;48.548;2.704;2023-12-29T04:09:44;100807.47;;;18.37;53.68
74680;BME280;63211;48.548;2.704;2023-12-29T04:12:10;100785.97;;;18.29;53.26
74680;BME280;63211;48.548;2.704;2023-12-29T04:14:37;100789.69;;;18.34;53.91
74680;BME280;63211;48.548;2.704;2023-12-29T04:17:03;100780.75;;;18.27;53.50
74680;BME280;63211;48.548;2.704;2023-12-29T04:19:39;100781.63;;;18.21;53.35
74680;BME280;63211;48.548;2.704;2023-12-29T04:22:05;100793.69;;;18.32;53.51
74680;BME280;63211;48.548;2.704;2023-12-29T04:24:33;100795.66;;;18.25;53.87
74680;BME280;63211;48.548;2.704;2023-12-29T04:27:00;100797.47;;;18.31;53.39
74680;BME280;63211;48.548;2.704;2023-12-29T04:29:27;100803.13;;;18.29;53.80
74680;BME280;63211;48.548;2.704;2023-12-29T04:31:53;100804.22;;;18.28;53.55
74680;BME280;63211;48.548;2.704;2023-12-29T04:34:20;100794.19;;;18.22;53.67
74680;BME280;63211;48.548;2.704;2023-12-29T04:36:46;100793.75;;;18.25;53.52
74680;BME280;63211;48.548;2.704;2023-12-29T04:39:13;100792.69;;;18.26;53.70
74680;BME280;63211;48.548;2.704;2023-12-29T04:41:41;100788.97;;;18.20;53.72
74680;BME280;63211;48.548;2.704;2023-12-29T04:44:07;100793.75;;;18.25;53.78
74680;BME280;63211;48.548;2.704;2023-12-29T04:46:34;100792.84;;;18.31;53.06
74680;BME280;63211;48.548;2.704;2023-12-29T04:49:01;100790.50;;;18.35;53.16
74680;BME280;63211;48.548;2.704;2023-12-29T04:51:27;100786.91;;;18.41;51.42
74680;BME280;63211;48.548;2.704;2023-12-29T04:53:54;100796.53;;;18.43;51.03
74680;BME280;63211;48.548;2.704;2023-12-29T04:56:20;100793.38;;;18.46;51.51
74680;BME280;63211;48.548;2.704;2023-12-29T04:58:51;100777.50;;;18.37;52.69
74680;BME280;63211;48.548;2.704;2023-12-29T05:01:18;100788.34;;;18.43;53.41
74680;BME280;63211;48.548;2.704;2023-12-29T05:03:44;100788.19;;;18.38;53.88
74680;BME280;63211;48.548;2.704;2023-12-29T05:06:11;100791.97;;;18.37;54.00
74680;BME280;63211;48.548;2.704;2023-12-29T05:08:37;100789.00;;;18.39;53.97
74680;BME280;63211;48.548;2.704;2023-12-29T05:11:04;100790.06;;;18.38;54.10
74680;BME280;63211;48.548;2.704;2023-12-29T05:13:30;100775.06;;;18.29;53.97
74680;BME280;63211;48.548;2.704;2023-12-29T05:15:58;100790.28;;;18.36;53.94
74680;BME280;63211;48.548;2.704;2023-12-29T05:18:25;100791.34;;;18.35;53.56
74680;BME280;63211;48.548;2.704;2023-12-29T05:20:53;100791.78;;;18.32;53.69
74680;BME280;63211;48.548;2.704;2023-12-29T05:23:19;100792.00;;;18.31;53.67
74680;BME280;63211;48.548;2.704;2023-12-29T05:25:46;100804.34;;;18.33;53.48
74680;BME280;63211;48.548;2.704;2023-12-29T05:28:12;100808.97;;;18.33;53.67
74680;BME280;63211;48.548;2.704;2023-12-29T05:30:39;100808.38;;;18.31;53.85
74680;BME280;63211;48.548;2.704;2023-12-29T05:33:07;100808.38;;;18.31;53.83
74680;BME280;63211;48.548;2.704;2023-12-29T05:35:33;100801.72;;;18.27;53.72
74680;BME280;63211;48.548;2.704;2023-12-29T05:38:00;100810.50;;;18.29;53.40
74680;BME280;63211;48.548;2.704;2023-12-29T05:40:26;100805.06;;;18.29;53.62
74680;BME280;63211;48.548;2.704;2023-12-29T05:42:53;100793.75;;;18.25;53.80
74680;BME280;63211;48.548;2.704;2023-12-29T05:45:20;100797.31;;;18.26;53.67
74680;BME280;63211;48.548;2.704;2023-12-29T05:47:46;100804.22;;;18.28;53.06
74680;BME280;63211;48.548;2.704;2023-12-29T05:50:14;100798.78;;;18.28;53.61
74680;BME280;63211;48.548;2.704;2023-12-29T05:52:41;100781.19;;;18.24;53.36
74680;BME280;63211;48.548;2.704;2023-12-29T05:55:08;100794.91;;;18.36;53.14
74680;BME280;63211;48.548;2.704;2023-12-29T05:57:34;100771.50;;;18.28;51.97
74680;BME280;63211;48.548;2.704;2023-12-29T06:00:01;100787.91;;;18.46;50.99
74680;BME280;63211;48.548;2.704;2023-12-29T06:02:27;100780.78;;;18.45;51.19
74680;BME280;63211;48.548;2.704;2023-12-29T06:04:54;100789.09;;;18.50;51.21
74680;BME280;63211;48.548;2.704;2023-12-29T06:07:22;100788.75;;;18.47;52.31
74680;BME280;63211;48.548;2.704;2023-12-29T06:09:48;100799.88;;;18.45;53.67
74680;BME280;63211;48.548;2.704;2023-12-29T06:12:15;100803.66;;;18.44;54.01
74680;BME280;63211;48.548;2.704;2023-12-29T06:14:41;100802.19;;;18.42;54.28
74680;BME280;63211;48.548;2.704;2023-12-29T06:17:08;100809.75;;;18.40;53.09
74680;BME280;63211;48.548;2.704;2023-12-29T06:19:35;100805.16;;;18.40;53.85
74680;BME280;63211;48.548;2.704;2023-12-29T06:22:01;100812.50;;;18.40;53.80
74680;BME280;63211;48.548;2.704;2023-12-29T06:24:29;100809.75;;;18.40;54.08
74680;BME280;63211;48.548;2.704;2023-12-29T06:26:55;100811.03;;;18.37;53.54
74680;BME280;63211;48.548;2.704;2023-12-29T06:29:22;100802.69;;;18.32;53.41
74680;BME280;63211;48.548;2.704;2023-12-29T06:31:49;100806.88;;;18.35;53.89
74680;BME280;63211;48.548;2.704;2023-12-29T06:34:15;100803.09;;;18.36;53.88
74680;BME280;63211;48.548;2.704;2023-12-29T06:36:42;100793.06;;;18.30;53.67
74680;BME280;63211;48.548;2.704;2023-12-29T06:39:08;100798.91;;;18.33;53.58
74680;BME280;63211;48.548;2.704;2023-12-29T06:41:36;100802.47;;;18.34;53.20
74680;BME280;63211;48.548;2.704;2023-12-29T06:44:03;100803.53;;;18.33;53.67
74680;BME280;63211;48.548;2.704;2023-12-29T06:46:29;100798.91;;;18.33;53.73
74680;BME280;63211;48.548;2.704;2023-12-29T06:48:56;100804.59;;;18.32;54.00
74680;BME280;63211;48.548;2.704;2023-12-29T06:51:22;100786.19;;;18.27;53.37
74680;BME280;63211;48.548;2.704;2023-12-29T06:53:49;100798.28;;;18.31;53.60
74680;BME280;63211;48.548;2.704;2023-12-29T06:56:16;100795.25;;;18.21;54.21
74680;BME280;63211;48.548;2.704;2023-12-29T06:58:45;100811.31;;;18.29;54.40
74680;BME280;63211;48.548;2.704;2023-12-29T07:01:11;100808.38;;;18.31;55.00
74680;BME280;63211;48.548;2.704;2023-12-29T07:03:38;100808.97;;;18.33;55.11
74680;BME280;63211;48.548;2.704;2023-12-29T07:06:05;100782.91;;;18.18;55.36
74680;BME280;63211;48.548;2.704;2023-12-29T07:08:32;100802.25;;;18.35;55.59
74680;BME280;63211;48.548;2.704;2023-12-29T07:10:59;100806.44;;;18.38;55.41
74680;BME280;63211;48.548;2.704;2023-12-29T07:13:25;100806.81;;;18.41;55.24
74680;BME280;63211;48.548;2.704;2023-12-29T07:15:53;100780.34;;;18.24;55.33
74680;BME280;63211;48.548;2.704;2023-12-29T07:18:20;100809.75;;;18.40;57.04
74680;BME280;63211;48.548;2.704;2023-12-29T07:20:47;100809.31;;;18.43;56.43
74680;BME280;63211;48.548;2.704;2023-12-29T07:23:13;100821.91;;;18.44;56.21
74680;BME280;63211;48.548;2.704;2023-12-29T07:25:40;100814.78;;;18.43;56.02
74680;BME280;63211;48.548;2.704;2023-12-29T07:28:06;100815.00;;;18.41;56.35
74680;BME280;63211;48.548;2.704;2023-12-29T07:30:33;100826.50;;;18.43;56.53
74680;BME280;63211;48.548;2.704;2023-12-29T07:33:01;100828.41;;;18.43;56.18
74680;BME280;63211;48.548;2.704;2023-12-29T07:35:27;100814.59;;;18.38;56.41
74680;BME280;63211;48.548;2.704;2023-12-29T07:37:54;100824.00;;;18.42;56.23
74680;BME280;63211;48.548;2.704;2023-12-29T07:40:21;100815.84;;;18.42;56.29
74680;BME280;63211;48.548;2.704;2023-12-29T07:42:47;100808.72;;;18.41;56.24
74680;BME280;63211;48.548;2.704;2023-12-29T07:45:15;100809.53;;;18.41;56.37
74680;BME280;63211;48.548;2.704;2023-12-29T07:47:42;100810.59;;;18.40;56.05
74680;BME280;63211;48.548;2.704;2023-12-29T07:50:10;100807.88;;;18.40;56.14
74680;BME280;63211;48.548;2.704;2023-12-29T07:52:36;100814.38;;;18.39;56.12
74680;BME280;63211;48.548;2.704;2023-12-29T07:55:04;100806.66;;;18.36;56.39
74680;BME280;63211;48.548;2.704;2023-12-29T07:57:30;100808.94;;;18.39;56.30
74680;BME280;63211;48.548;2.704;2023-12-29T07:59:57;100811.03;;;18.37;55.97
74680;BME280;63211;48.548;2.704;2023-12-29T08:02:23;100811.03;;;18.37;56.29
74680;BME280;63211;48.548;2.704;2023-12-29T08:04:50;100818.38;;;18.37;56.19
74680;BME280;63211;48.548;2.704;2023-12-29T08:07:18;100811.88;;;18.38;56.63
74680;BME280;63211;48.548;2.704;2023-12-29T08:09:44;100811.66;;;18.39;56.65
74680;BME280;63211;48.548;2.704;2023-12-29T08:12:11;100811.44;;;18.41;56.20
74680;BME280;63211;48.548;2.704;2023-12-29T08:14:38;100808.88;;;18.46;56.41
74680;BME280;63211;48.548;2.704;2023-12-29T08:17:05;100809.50;;;18.48;56.23
74680;BME280;63211;48.548;2.704;2023-12-29T08:19:32;100812.81;;;18.50;56.11
74680;BME280;63211;48.548;2.704;2023-12-29T08:21:59;100802.38;;;18.47;56.33
74680;BME280;63211;48.548;2.704;2023-12-29T08:24:26;100810.25;;;18.55;56.38
74680;BME280;63211;48.548;2.704;2023-12-29T08:26:53;100816.75;;;18.54;56.40
74680;BME280;63211;48.548;2.704;2023-12-29T08:29:20;100814.47;;;18.51;56.42
74680;BME280;63211;48.548;2.704;2023-12-29T08:31:47;100822.66;;;18.51;56.40
74680;BME280;63211;48.548;2.704;2023-12-29T08:34:13;100804.50;;;18.45;56.66
74680;BME280;63211;48.548;2.704;2023-12-29T08:36:40;100803.81;;;18.49;56.55
74680;BME280;63211;48.548;2.704;2023-12-29T08:39:07;100813.91;;;18.49;56.33
74680;BME280;63211;48.548;2.704;2023-12-29T08:41:35;100810.78;;;18.45;56.67
74680;BME280;63211;48.548;2.704;2023-12-29T08:44:02;100812.81;;;18.50;56.61
74680;BME280;63211;48.548;2.704;2023-12-29T08:46:29;100819.34;;;18.49;56.46
74680;BME280;63211;48.548;2.704;2023-12-29T08:48:56;100817.06;;;18.46;56.28
74680;BME280;63211;48.548;2.704;2023-12-29T08:51:22;100803.44;;;18.46;56.23
74680;BME280;63211;48.548;2.704;2023-12-29T08:53:49;100800.53;;;18.41;55.88
74680;BME280;63211;48.548;2.704;2023-12-29T08:56:15;100804.50;;;18.45;56.09
74680;BME280;63211;48.548;2.704;2023-12-29T08:58:43;100804.72;;;18.43;56.28
74680;BME280;63211;48.548;2.704;2023-12-29T09:01:10;100812.06;;;18.43;55.94
74680;BME280;63211;48.548;2.704;2023-12-29T09:03:36;100808.28;;;18.44;56.11
74680;BME280;63211;48.548;2.704;2023-12-29T09:06:04;100815.84;;;18.42;55.69
74680;BME280;63211;48.548;2.704;2023-12-29T09:08:31;100814.38;;;18.39;55.86
74680;BME280;63211;48.548;2.704;2023-12-29T09:10:57;100808.72;;;18.41;56.01
74680;BME280;63211;48.548;2.704;2023-12-29T09:13:24;100815.44;;;18.38;55.61
74680;BME280;63211;48.548;2.704;2023-12-29T09:15:54;100817.94;;;18.40;55.87
74680;BME280;63211;48.548;2.704;2023-12-29T09:18:21;100819.84;;;18.39;55.75
74680;BME280;63211;48.548;2.704;2023-12-29T09:20:47;100815.88;;;18.35;55.98
74680;BME280;63211;48.548;2.704;2023-12-29T09:23:14;100826.13;;;18.40;56.14
74680;BME280;63211;48.548;2.704;2023-12-29T09:25:41;100819.56;;;18.47;56.00
74680;BME280;63211;48.548;2.704;2023-12-29T09:28:07;100821.59;;;18.52;56.13
74680;BME280;63211;48.548;2.704;2023-12-29T09:30:34;100827.00;;;18.59;56.56
74680;BME280;63211;48.548;2.704;2023-12-29T09:33:02;100824.25;;;18.65;56.49
74680;BME280;63211;48.548;2.704;2023-12-29T09:35:28;100816.47;;;18.69;56.58
74680;BME280;63211;48.548;2.704;2023-12-29T09:37:57;100814.56;;;18.69;56.28
74680;BME280;63211;48.548;2.704;2023-12-29T09:40:24;100823.94;;;18.73;56.08
74680;BME280;63211;48.548;2.704;2023-12-29T09:42:52;100833.66;;;18.69;56.17
74680;BME280;63211;48.548;2.704;2023-12-29T09:45:23;100839.13;;;18.69;55.84
74680;BME280;63211;48.548;2.704;2023-12-29T09:47:51;100824.25;;;18.65;55.59
74680;BME280;63211;48.548;2.704;2023-12-29T09:50:21;100832.22;;;18.67;55.92
74680;BME280;63211;48.548;2.704;2023-12-29T09:52:48;100840.41;;;18.67;55.57
74680;BME280;63211;48.548;2.704;2023-12-29T09:55:16;100845.84;;;18.67;55.43
74680;BME280;63211;48.548;2.704;2023-12-29T09:57:43;100845.84;;;18.67;55.56
74680;BME280;63211;48.548;2.704;2023-12-29T10:00:11;100816.53;;;18.62;55.61
74680;BME280;63211;48.548;2.704;2023-12-29T10:02:38;100836.63;;;18.68;55.26
74680;BME280;63211;48.548;2.704;2023-12-29T10:05:05;100845.63;;;18.68;55.36
74680;BME280;63211;48.548;2.704;2023-12-29T10:07:36;100838.50;;;18.67;55.68
74680;BME280;63211;48.548;2.704;2023-12-29T10:10:04;100837.06;;;18.65;55.45
74680;BME280;63211;48.548;2.704;2023-12-29T10:12:32;100805.72;;;18.49;55.46
74680;BME280;63211;48.548;2.704;2023-12-29T10:15:05;100833.72;;;18.63;55.59
74680;BME280;63211;48.548;2.704;2023-12-29T10:17:43;100837.66;;;18.67;55.35
74680;BME280;63211;48.548;2.704;2023-12-29T10:20:16;100817.81;;;18.53;55.31
74680;BME280;63211;48.548;2.704;2023-12-29T10:22:56;100843.34;;;18.59;55.43
74680;BME280;63211;48.548;2.704;2023-12-29T10:25:27;100846.69;;;18.67;55.27
74680;BME280;63211;48.548;2.704;2023-12-29T10:27:54;100828.28;;;18.56;55.47
74680;BME280;63211;48.548;2.704;2023-12-29T10:30:22;100856.16;;;18.65;55.31
74680;BME280;63211;48.548;2.704;2023-12-29T10:32:49;100844.84;;;18.61;55.12
74680;BME280;63211;48.548;2.704;2023-12-29T10:35:16;100853.41;;;18.65;55.20
74680;BME280;63211;48.548;2.704;2023-12-29T10:37:43;100834.34;;;18.58;54.61
74680;BME280;63211;48.548;2.704;2023-12-29T10:40:16;100853.81;;;18.68;54.53
74680;BME280;63211;48.548;2.704;2023-12-29T10:42:51;100855.47;;;18.69;54.25
74680;BME280;63211;48.548;2.704;2023-12-29T10:45:18;100850.16;;;18.74;54.57
74680;BME280;63211;48.548;2.704;2023-12-29T10:47:45;100858.97;;;18.76;54.29
74680;BME280;63211;48.548;2.704;2023-12-29T10:50:11;100845.78;;;18.73;54.24
74680;BME280;63211;48.548;2.704;2023-12-29T10:52:38;100850.78;;;18.76;54.32
74680;BME280;63211;48.548;2.704;2023-12-29T10:55:08;100844.25;;;18.77;54.43
74680;BME280;63211;48.548;2.704;2023-12-29T10:57:36;100830.25;;;18.74;54.37
74680;BME280;63211;48.548;2.704;2023-12-29T11:00:03;100836.53;;;18.74;54.65
74680;BME280;63211;48.548;2.704;2023-12-29T11:02:31;100834.03;;;18.73;54.70
74680;BME280;63211;48.548;2.704;2023-12-29T11:08:21;100845.16;;;18.71;54.60
74680;BME280;63211;48.548;2.704;2023-12-29T11:10:48;100826.53;;;18.68;54.72
74680;BME280;63211;48.548;2.704;2023-12-29T11:13:16;100827.59;;;18.67;54.61
74680;BME280;63211;48.548;2.704;2023-12-29T11:15:44;100840.19;;;18.68;54.43
74680;BME280;63211;48.548;2.704;2023-12-29T11:18:13;100839.25;;;18.74;54.36
74680;BME280;63211;48.548;2.704;2023-12-29T11:20:40;100839.88;;;18.76;54.81
74680;BME280;63211;48.548;2.704;2023-12-29T11:23:09;100828.72;;;18.78;54.48
74680;BME280;63211;48.548;2.704;2023-12-29T11:25:36;100838.81;;;18.77;54.43
74680;BME280;63211;48.548;2.704;2023-12-29T11:28:05;100842.38;;;18.78;54.52
74680;BME280;63211;48.548;2.704;2023-12-29T11:30:33;100826.91;;;18.72;54.76
74680;BME280;63211;48.548;2.704;2023-12-29T11:33:03;100823.50;;;18.76;54.88
74680;BME280;63211;48.548;2.704;2023-12-29T11:35:35;100815.53;;;18.75;54.50
74680;BME280;63211;48.548;2.704;2023-12-29T11:38:26;100816.59;;;18.74;54.48
74680;BME280;63211;48.548;2.704;2023-12-29T11:41:02;100817.22;;;18.76;54.57
74680;BME280;63211;48.548;2.704;2023-12-29T11:43:31;100802.34;;;18.72;54.74
74680;BME280;63211;48.548;2.704;2023-12-29T11:46:00;100801.28;;;18.73;54.68
74680;BME280;63211;48.548;2.704;2023-12-29T11:48:54;100814.72;;;18.74;54.48
74680;BME280;63211;48.548;2.704;2023-12-29T11:51:29;100812.44;;;18.71;54.48
74680;BME280;63211;48.548;2.704;2023-12-29T11:53:56;100810.31;;;18.73;54.73
74680;BME280;63211;48.548;2.704;2023-12-29T11:56:23;100810.31;;;18.73;54.46
74680;BME280;63211;48.548;2.704;2023-12-29T11:58:49;100798.94;;;18.76;55.16
74680;BME280;63211;48.548;2.704;2023-12-29T12:01:35;100802.28;;;18.78;55.02
74680;BME280;63211;48.548;2.704;2023-12-29T12:04:02;100802.91;;;18.80;55.27
74680;BME280;63211;48.548;2.704;2023-12-29T12:06:38;100799.13;;;18.81;54.88
74680;BME280;63211;48.548;2.704;2023-12-29T12:09:21;100777.06;;;18.83;54.98
74680;BME280;63211;48.548;2.704;2023-12-29T12:11:49;100774.34;;;18.83;54.77
74680;BME280;63211;48.548;2.704;2023-12-29T12:14:49;100777.91;;;18.83;54.62
74680;BME280;63211;48.548;2.704;2023-12-29T12:17:31;100781.31;;;18.79;54.68
74680;BME280;63211;48.548;2.704;2023-12-29T12:20:01;100776.25;;;18.82;54.97
74680;BME280;63211;48.548;2.704;2023-12-29T12:22:30;100780.41;;;18.85;55.01
74680;BME280;63211;48.548;2.704;2023-12-29T12:24:57;100767.44;;;18.80;54.78
74680;BME280;63211;48.548;2.704;2023-12-29T12:27:25;100769.13;;;18.81;57.45
74680;BME280;63211;48.548;2.704;2023-12-29T12:29:53;100766.38;;;18.81;56.62
74680;BME280;63211;48.548;2.704;2023-12-29T12:32:22;100772.91;;;18.80;58.03
74680;BME280;63211;48.548;2.704;2023-12-29T12:34:50;100759.94;;;18.76;59.09
74680;BME280;63211;48.548;2.704;2023-12-29T12:37:20;100762.06;;;18.74;59.06
74680;BME280;63211;48.548;2.704;2023-12-29T12:39:47;100766.53;;;18.68;59.96
74680;BME280;63211;48.548;2.704;2023-12-29T12:42:15;100765.09;;;18.66;60.26
74680;BME280;63211;48.548;2.704;2023-12-29T12:44:48;100753.78;;;18.62;59.89
74680;BME280;63211;48.548;2.704;2023-12-29T12:47:19;100750.03;;;18.57;60.28
74680;BME280;63211;48.548;2.704;2023-12-29T12:49:50;100751.53;;;18.59;61.15
74680;BME280;63211;48.548;2.704;2023-12-29T12:52:17;100736.19;;;18.58;61.35
74680;BME280;63211;48.548;2.704;2023-12-29T12:54:44;100745.66;;;18.55;61.25
74680;BME280;63211;48.548;2.704;2023-12-29T12:57:11;100742.09;;;18.55;61.64